CheckWX is a tool to help pilots better visualize weather data.  It is not intended as a substitute for an official pre-flight weather briefing.

06:48:51 UTC

0F2 METAR
Bowie Municipal Airport
Bowie, Texas, USA
Current

14 mins ago

K0F2 170635Z AUTO 17006KT 10SM OVC006 19/18 A2992 RMK AO2 T01860179
Observed
Jun-17 @ 06:35 UTC
Wind
  • 170° at 6 KTS
Visibility
10 SM
Flight Rules
IFR
Cloud Levels
  • Overcast at 600' AGL
Temperature
19°C / 66°F
Dewpoint
18°C / 64°F
Humidity
94%
Altimeter
29.92" Hg
Pressure
1013.22 hPa
Previous

34 mins ago

K0F2 170615Z AUTO 18007KT 10SM OVC006 19/18 A2991 RMK AO2 T01860180
Observed
Jun-17 @ 06:15 UTC
Wind
  • 180° at 7 KTS
Visibility
10 SM
Flight Rules
IFR
Cloud Levels
  • Overcast at 600' AGL
Temperature
19°C / 66°F
Dewpoint
18°C / 64°F
Humidity
94%
Altimeter
29.91" Hg
Pressure
1012.92 hPa
Previous

54 mins ago

K0F2 170555Z AUTO 17007KT 10SM OVC006 19/18 A2990 RMK AO2 T01880181 10220 20188 402460179
Observed
Jun-17 @ 05:55 UTC
Wind
  • 170° at 7 KTS
Visibility
10 SM
Flight Rules
IFR
Cloud Levels
  • Overcast at 600' AGL
Temperature
19°C / 66°F
Dewpoint
18°C / 64°F
Humidity
94%
Altimeter
29.9" Hg
Pressure
1012.52 hPa